Time;durP1;ratioP1;P1;durP2;ratioP2;P2;SDS_P1;SDS_P2;PMS_P1;PMS_P2;Temp;Humidity;BMP_temperature;BMP_pressure;BME280_temperature;BME280_humidity;BME280_pressure;Samples;Min_cycle;Max_cycle;Signal;HPM_P1;HPM_P2
2021/01/10 00:00:14;;;;;;;15.73;7.65;;;;;;;;;;5029845;28;20691;-72
2021/01/10 00:03:19;;;;;;;14.10;8.40;;;;;;;;;;4996891;28;20194;-72
2021/01/10 00:06:23;;;;;;;14.18;7.50;;;;;;;;;;5003532;28;20208;-71
2021/01/10 00:09:28;;;;;;;15.05;8.98;;;;;;;;;;5034496;28;20184;-72
2021/01/10 00:12:31;;;;;;;13.18;7.45;;;;;;;;;;5035276;28;20217;-72
2021/01/10 00:15:35;;;;;;;12.50;6.95;;;;;;;;;;5034421;28;20180;-72
2021/01/10 00:18:39;;;;;;;14.63;7.45;;;;;;;;;;5015938;28;20205;-72
2021/01/10 00:21:44;;;;;;;14.32;7.65;;;;;;;;;;5015515;28;20229;-72
2021/01/10 00:24:48;;;;;;;13.73;7.47;;;;;;;;;;5006217;28;20194;-71
2021/01/10 00:27:52;;;;;;;15.70;7.18;;;;;;;;;;5005807;28;20190;-72
2021/01/10 00:30:56;;;;;;;12.20;6.97;;;;;;;;;;4995795;28;20214;-72
2021/01/10 00:34:01;;;;;;;11.93;7.25;;;;;;;;;;5019137;28;20222;-72
2021/01/10 00:37:20;;;;;;;15.40;7.72;;;;;;;;;;5035052;28;20205;-72
2021/01/10 00:40:26;;;;;;;15.07;7.43;;;;;;;;;;5017521;28;20557;-72
2021/01/10 00:43:30;;;;;;;15.32;7.50;;;;;;;;;;5015199;28;20632;-72
2021/01/10 00:46:34;;;;;;;14.68;8.07;;;;;;;;;;5014399;28;20529;-72
2021/01/10 00:49:39;;;;;;;14.30;7.90;;;;;;;;;;5033873;28;20193;-72
2021/01/10 00:52:44;;;;;;;14.75;7.40;;;;;;;;;;4995451;28;20186;-72
2021/01/10 00:55:50;;;;;;;15.98;7.90;;;;;;;;;;5005857;28;20527;-72
2021/01/10 00:58:54;;;;;;;16.67;7.55;;;;;;;;;;5022295;28;20198;-72
2021/01/10 01:01:58;;;;;;;12.13;7.30;;;;;;;;;;5015116;28;20229;-72
2021/01/10 01:05:03;;;;;;;14.75;7.63;;;;;;;;;;5033241;28;20181;-72
2021/01/10 01:08:08;;;;;;;12.90;6.97;;;;;;;;;;5013855;28;20201;-72
2021/01/10 01:11:34;;;;;;;12.90;7.40;;;;;;;;;;5004167;28;20213;-72
2021/01/10 01:14:39;;;;;;;15.02;7.68;;;;;;;;;;5014597;28;20197;-73
2021/01/10 01:17:43;;;;;;;15.65;8.10;;;;;;;;;;5024501;28;20189;-73
2021/01/10 01:20:47;;;;;;;14.40;7.72;;;;;;;;;;5026708;28;20229;-73
2021/01/10 01:23:51;;;;;;;11.85;7.63;;;;;;;;;;5028571;28;20200;-72
2021/01/10 01:26:55;;;;;;;15.57;8.13;;;;;;;;;;5033430;28;20205;-73
2021/01/10 01:29:59;;;;;;;16.25;8.15;;;;;;;;;;5034054;28;20200;-73
2021/01/10 01:33:03;;;;;;;18.02;8.63;;;;;;;;;;5033963;28;20181;-73
2021/01/10 01:36:12;;;;;;;13.52;7.45;;;;;;;;;;5021473;28;20185;-73
2021/01/10 01:39:17;;;;;;;15.60;8.13;;;;;;;;;;5029666;28;20193;-72
2021/01/10 01:42:21;;;;;;;16.63;7.28;;;;;;;;;;5033846;28;20232;-73
2021/01/10 01:45:25;;;;;;;14.45;7.60;;;;;;;;;;5034256;28;20188;-72
2021/01/10 01:48:30;;;;;;;14.75;7.78;;;;;;;;;;5024810;28;20185;-73
2021/01/10 01:51:36;;;;;;;12.45;7.18;;;;;;;;;;5028757;28;20217;-73
2021/01/10 01:54:40;;;;;;;15.00;7.47;;;;;;;;;;5033867;28;20181;-72
2021/01/10 01:57:43;;;;;;;13.10;7.32;;;;;;;;;;5031171;28;20552;-73
2021/01/10 02:00:48;;;;;;;13.60;7.25;;;;;;;;;;5015775;28;20236;-73
2021/01/10 02:04:13;;;;;;;12.95;7.43;;;;;;;;;;5033473;28;20193;-72
2021/01/10 02:07:29;;;;;;;18.02;8.27;;;;;;;;;;5024064;28;20193;-72
2021/01/10 02:10:38;;;;;;;12.70;6.68;;;;;;;;;;4994356;28;20186;-72
2021/01/10 02:13:46;;;;;;;14.43;7.35;;;;;;;;;;4994054;28;20178;-73
2021/01/10 02:16:50;;;;;;;13.95;7.20;;;;;;;;;;4994012;28;20178;-73
2021/01/10 02:20:15;;;;;;;17.02;8.52;;;;;;;;;;5031070;28;20532;-72
2021/01/10 02:23:26;;;;;;;13.85;7.45;;;;;;;;;;5013537;28;20529;-72
2021/01/10 02:26:30;;;;;;;15.77;8.23;;;;;;;;;;5013740;28;20181;-72
2021/01/10 02:29:36;;;;;;;13.43;7.72;;;;;;;;;;5030265;28;20212;-73
2021/01/10 02:32:48;;;;;;;13.40;7.68;;;;;;;;;;5032858;28;20220;-72
2021/01/10 02:35:53;;;;;;;16.17;7.72;;;;;;;;;;5024264;28;20194;-72
2021/01/10 02:39:09;;;;;;;16.08;8.32;;;;;;;;;;5002599;28;20189;-72
2021/01/10 02:42:24;;;;;;;13.90;6.78;;;;;;;;;;5013443;28;20221;-72
2021/01/10 02:45:31;;;;;;;18.35;8.60;;;;;;;;;;5013447;28;20178;-72
2021/01/10 02:48:35;;;;;;;16.27;8.65;;;;;;;;;;5021613;28;20572;-72
2021/01/10 02:51:39;;;;;;;16.40;8.90;;;;;;;;;;5018341;28;20699;-72
2021/01/10 02:54:43;;;;;;;18.85;9.05;;;;;;;;;;5013226;28;20182;-72
2021/01/10 02:57:57;;;;;;;16.48;8.32;;;;;;;;;;5014634;28;20201;-72
2021/01/10 03:01:05;;;;;;;17.88;8.90;;;;;;;;;;5032663;28;20229;-72
2021/01/10 03:04:09;;;;;;;23.88;8.90;;;;;;;;;;5033090;28;20189;-72
2021/01/10 03:07:14;;;;;;;26.40;11.80;;;;;;;;;;4993763;28;20510;-72
2021/01/10 03:10:18;;;;;;;36.00;14.90;;;;;;;;;;4996999;28;20185;-72
2021/01/10 03:13:23;;;;;;;31.60;13.43;;;;;;;;;;5012477;28;20194;-72
2021/01/10 03:16:28;;;;;;;33.97;13.40;;;;;;;;;;5012995;28;20173;-72
2021/01/10 03:19:32;;;;;;;23.08;10.43;;;;;;;;;;5028511;28;20201;-73
2021/01/10 03:22:37;;;;;;;21.88;10.38;;;;;;;;;;5012034;28;20228;-72
2021/01/10 03:25:42;;;;;;;21.85;10.07;;;;;;;;;;5012184;28;20198;-72
2021/01/10 03:28:46;;;;;;;19.67;10.15;;;;;;;;;;5014010;28;20206;-73
2021/01/10 03:31:50;;;;;;;21.00;9.65;;;;;;;;;;5012818;28;20220;-71
2021/01/10 03:34:54;;;;;;;19.73;10.75;;;;;;;;;;5012048;28;20185;-72
2021/01/10 03:37:58;;;;;;;19.15;9.50;;;;;;;;;;5011833;28;20194;-73
2021/01/10 03:41:02;;;;;;;21.73;9.50;;;;;;;;;;5011690;28;20225;-73
2021/01/10 03:44:06;;;;;;;22.50;10.35;;;;;;;;;;5013017;28;20178;-72
2021/01/10 03:47:10;;;;;;;17.23;9.63;;;;;;;;;;5016301;28;20192;-72
2021/01/10 03:50:15;;;;;;;16.02;9.25;;;;;;;;;;5009843;28;20194;-72
2021/01/10 03:53:19;;;;;;;14.60;9.00;;;;;;;;;;5015512;28;20533;-72
2021/01/10 03:56:24;;;;;;;15.15;9.40;;;;;;;;;;5015637;28;20177;-73
2021/01/10 03:59:29;;;;;;;20.30;10.18;;;;;;;;;;5028637;28;20528;-72
2021/01/10 04:02:33;;;;;;;17.40;9.80;;;;;;;;;;5035916;28;20239;-72
2021/01/10 04:05:37;;;;;;;16.13;9.18;;;;;;;;;;4996650;28;20186;-72
2021/01/10 04:08:41;;;;;;;18.67;10.23;;;;;;;;;;5008956;28;20181;-72
2021/01/10 04:11:45;;;;;;;23.85;10.63;;;;;;;;;;5035856;28;20213;-72
2021/01/10 04:14:55;;;;;;;21.15;10.43;;;;;;;;;;5020202;28;20196;-72
2021/01/10 04:17:59;;;;;;;21.02;11.27;;;;;;;;;;5015030;28;20174;-72
2021/01/10 04:21:03;;;;;;;20.35;9.75;;;;;;;;;;5034719;28;20212;-72
2021/01/10 04:24:07;;;;;;;17.42;9.93;;;;;;;;;;5034853;28;20177;-72
2021/01/10 04:27:12;;;;;;;21.70;10.57;;;;;;;;;;5034972;28;20196;-72
2021/01/10 04:30:16;;;;;;;21.10;9.15;;;;;;;;;;5014707;28;20699;-72
2021/01/10 04:33:20;;;;;;;19.10;9.50;;;;;;;;;;5015409;28;20189;-72
2021/01/10 04:36:28;;;;;;;26.05;10.23;;;;;;;;;;5015705;28;20178;-73
2021/01/10 04:39:33;;;;;;;31.83;10.57;;;;;;;;;;5028274;28;20702;-72
2021/01/10 04:42:37;;;;;;;18.60;9.88;;;;;;;;;;5034314;28;20232;-72
2021/01/10 04:45:42;;;;;;;20.90;10.40;;;;;;;;;;5034336;28;20184;-73
2021/01/10 04:48:47;;;;;;;19.80;9.38;;;;;;;;;;5027586;28;20198;-73
2021/01/10 04:51:53;;;;;;;21.85;11.00;;;;;;;;;;5015118;28;20213;-73
2021/01/10 04:54:57;;;;;;;18.67;9.30;;;;;;;;;;5031927;28;20192;-72
2021/01/10 04:58:06;;;;;;;22.55;10.57;;;;;;;;;;5033927;28;20577;-72
2021/01/10 05:01:17;;;;;;;20.27;9.73;;;;;;;;;;4995308;28;20229;-73
2021/01/10 05:04:22;;;;;;;18.92;10.13;;;;;;;;;;5008354;28;20190;-73
2021/01/10 05:07:26;;;;;;;18.60;9.73;;;;;;;;;;5013939;28;20201;-73
2021/01/10 05:10:32;;;;;;;19.83;10.55;;;;;;;;;;4995238;28;20206;-73
2021/01/10 05:13:36;;;;;;;20.10;10.00;;;;;;;;;;5000538;28;20192;-72
2021/01/10 05:16:39;;;;;;;18.77;9.57;;;;;;;;;;5002618;28;20191;-73
2021/01/10 05:19:45;;;;;;;23.45;10.73;;;;;;;;;;5028926;28;20196;-73
2021/01/10 05:22:50;;;;;;;21.00;10.65;;;;;;;;;;5034155;28;20208;-73
2021/01/10 05:26:05;;;;;;;21.70;10.75;;;;;;;;;;4994081;28;20186;-72
2021/01/10 05:29:11;;;;;;;26.92;10.82;;;;;;;;;;5030993;28;20222;-73
2021/01/10 05:32:17;;;;;;;23.27;11.40;;;;;;;;;;5041735;22;20236;-73
2021/01/10 05:35:22;;;;;;;22.63;10.95;;;;;;;;;;4999974;28;20189;-73
2021/01/10 05:38:31;;;;;;;25.38;12.65;;;;;;;;;;5027037;28;20199;-73
2021/01/10 05:41:36;;;;;;;30.10;12.90;;;;;;;;;;5016465;28;20224;-73
2021/01/10 05:44:43;;;;;;;34.47;14.55;;;;;;;;;;5014163;28;20679;-73
2021/01/10 05:47:48;;;;;;;28.73;13.63;;;;;;;;;;5013236;28;20559;-73
2021/01/10 05:50:52;;;;;;;26.77;13.65;;;;;;;;;;5013606;28;20223;-73
2021/01/10 05:53:57;;;;;;;31.35;13.18;;;;;;;;;;5010850;28;20202;-73
2021/01/10 05:57:10;;;;;;;33.25;13.35;;;;;;;;;;5013808;28;20198;-73
2021/01/10 06:00:28;;;;;;;28.38;13.00;;;;;;;;;;5014110;28;20188;-73
2021/01/10 06:03:32;;;;;;;28.10;12.45;;;;;;;;;;5013569;28;20242;-73
2021/01/10 06:06:41;;;;;;;21.88;11.40;;;;;;;;;;5014084;28;20178;-73
2021/01/10 06:09:47;;;;;;;27.83;12.63;;;;;;;;;;4974804;28;20187;-73
2021/01/10 06:13:07;;;;;;;27.65;13.43;;;;;;;;;;4999445;28;20182;-73
2021/01/10 06:16:12;;;;;;;29.08;13.13;;;;;;;;;;5013730;28;20653;-73
2021/01/10 06:19:18;;;;;;;33.38;13.73;;;;;;;;;;4990012;28;20228;-73
2021/01/10 06:22:23;;;;;;;27.73;13.05;;;;;;;;;;4998795;28;20584;-73
2021/01/10 06:25:29;;;;;;;29.13;13.40;;;;;;;;;;5013539;28;20696;-73
2021/01/10 06:28:36;;;;;;;33.40;13.50;;;;;;;;;;5012323;28;20696;-73
2021/01/10 06:31:46;;;;;;;27.38;12.43;;;;;;;;;;5013242;28;20224;-73
2021/01/10 06:34:51;;;;;;;30.67;13.40;;;;;;;;;;5013689;28;20536;-73
2021/01/10 06:37:56;;;;;;;25.92;11.50;;;;;;;;;;5012934;28;20206;-73
2021/01/10 06:41:29;;;;;;;27.88;12.52;;;;;;;;;;5013112;28;20245;-73
2021/01/10 06:44:36;;;;;;;26.95;11.95;;;;;;;;;;5013279;28;20182;-72
2021/01/10 06:47:40;;;;;;;24.55;12.63;;;;;;;;;;5005568;28;20206;-73
2021/01/10 06:50:45;;;;;;;28.77;12.75;;;;;;;;;;5012630;28;20240;-73
2021/01/10 06:53:49;;;;;;;22.50;11.85;;;;;;;;;;4974764;28;20188;-73
2021/01/10 06:56:55;;;;;;;23.52;11.50;;;;;;;;;;4974589;28;20190;-72
2021/01/10 07:00:10;;;;;;;35.05;11.18;;;;;;;;;;4974345;28;20669;-72
2021/01/10 07:03:14;;;;;;;27.02;12.57;;;;;;;;;;4991990;28;20216;-72
2021/01/10 07:06:19;;;;;;;22.60;11.30;;;;;;;;;;5012280;28;20210;-73
2021/01/10 07:09:23;;;;;;;24.02;12.00;;;;;;;;;;5012877;28;20209;-73
2021/01/10 07:12:27;;;;;;;25.13;12.23;;;;;;;;;;5013052;28;20213;-72
2021/01/10 07:15:31;;;;;;;23.10;12.07;;;;;;;;;;5013412;28;20181;-73
2021/01/10 07:18:55;;;;;;;26.08;12.55;;;;;;;;;;5012708;28;20200;-72
2021/01/10 07:21:59;;;;;;;26.23;11.35;;;;;;;;;;5016576;28;20247;-73
2021/01/10 07:25:34;;;;;;;26.55;12.65;;;;;;;;;;5015926;28;20185;-72
2021/01/10 07:28:40;;;;;;;24.40;12.20;;;;;;;;;;5016484;28;20189;-73
2021/01/10 07:32:14;;;;;;;27.48;12.05;;;;;;;;;;5016987;28;20232;-72
2021/01/10 07:35:19;;;;;;;22.27;11.98;;;;;;;;;;5016678;28;20212;-74
2021/01/10 07:38:25;;;;;;;29.40;11.98;;;;;;;;;;5016015;28;20204;-73
2021/01/10 07:41:31;;;;;;;24.90;12.00;;;;;;;;;;5003924;28;20252;-74
2021/01/10 07:44:48;;;;;;;22.85;11.68;;;;;;;;;;5016423;28;20193;-73
2021/01/10 07:47:53;;;;;;;19.98;10.52;;;;;;;;;;4993200;28;20193;-73
2021/01/10 07:51:16;;;;;;;19.27;10.18;;;;;;;;;;5004530;28;20228;-73
2021/01/10 07:54:50;;;;;;;20.83;11.40;;;;;;;;;;5016396;28;20532;-74
2021/01/10 07:58:00;;;;;;;20.20;10.77;;;;;;;;;;5009720;28;20196;-73
2021/01/10 08:01:04;;;;;;;25.45;17.25;;;;;;;;;;5004070;28;20221;-73
2021/01/10 08:04:09;;;;;;;25.20;13.23;;;;;;;;;;5014946;28;20220;-73
2021/01/10 08:07:23;;;;;;;24.20;12.82;;;;;;;;;;5015420;28;20198;-73
2021/01/10 08:10:49;;;;;;;22.23;11.93;;;;;;;;;;4998750;28;20194;-73
2021/01/10 08:13:53;;;;;;;20.63;10.55;;;;;;;;;;4977332;28;20531;-73
2021/01/10 08:16:58;;;;;;;25.17;13.82;;;;;;;;;;4994429;28;20200;-72
2021/01/10 08:20:07;;;;;;;24.63;14.07;;;;;;;;;;4976970;28;20196;-72
2021/01/10 08:23:14;;;;;;;28.35;15.55;;;;;;;;;;4976853;28;20210;-72
2021/01/10 08:26:19;;;;;;;25.23;14.35;;;;;;;;;;4976889;28;20530;-73
2021/01/10 08:29:24;;;;;;;22.75;13.40;;;;;;;;;;5010471;28;20208;-73
2021/01/10 08:32:31;;;;;;;22.15;12.25;;;;;;;;;;4975960;28;20255;-73
2021/01/10 08:35:35;;;;;;;22.52;11.60;;;;;;;;;;4975932;28;20188;-73
2021/01/10 08:39:02;;;;;;;21.20;10.85;;;;;;;;;;4998070;28;20196;-73
2021/01/10 08:42:06;;;;;;;18.98;11.15;;;;;;;;;;5023744;28;20723;-73
2021/01/10 08:45:19;;;;;;;20.67;11.98;;;;;;;;;;5014686;28;20204;-73
2021/01/10 08:48:23;;;;;;;20.63;11.02;;;;;;;;;;5014969;28;20201;-73
2021/01/10 08:51:28;;;;;;;18.90;10.48;;;;;;;;;;5015191;28;20578;-73
2021/01/10 08:54:33;;;;;;;36.40;17.45;;;;;;;;;;5015142;28;20185;-73
2021/01/10 08:57:37;;;;;;;23.17;13.07;;;;;;;;;;4986058;28;20568;-73
2021/01/10 09:00:42;;;;;;;24.23;13.23;;;;;;;;;;5017033;28;20216;-73
2021/01/10 09:04:05;;;;;;;26.23;14.53;;;;;;;;;;5015122;28;20218;-73
2021/01/10 09:07:09;;;;;;;25.23;13.50;;;;;;;;;;5014312;28;20600;-74
2021/01/10 09:10:15;;;;;;;34.77;18.40;;;;;;;;;;5014215;28;20540;-73
2021/01/10 09:13:22;;;;;;;17.43;10.43;;;;;;;;;;4963835;28;20609;-73
2021/01/10 09:16:30;;;;;;;19.23;10.40;;;;;;;;;;4975809;28;20604;-73
2021/01/10 09:19:35;;;;;;;17.10;10.20;;;;;;;;;;5013664;28;20595;-73
2021/01/10 09:22:39;;;;;;;44.93;23.23;;;;;;;;;;5013858;28;20650;-74
2021/01/10 09:25:43;;;;;;;45.03;23.57;;;;;;;;;;5013599;28;20619;-74
2021/01/10 09:28:48;;;;;;;41.13;22.47;;;;;;;;;;5014021;28;20974;-72
2021/01/10 09:31:52;;;;;;;26.50;14.90;;;;;;;;;;5013103;28;20664;-74
2021/01/10 09:34:57;;;;;;;22.70;12.57;;;;;;;;;;5014337;28;20599;-73
2021/01/10 09:38:10;;;;;;;28.13;15.20;;;;;;;;;;5014329;28;20548;-72
2021/01/10 09:41:14;;;;;;;21.37;13.30;;;;;;;;;;5014198;28;20647;-73
2021/01/10 09:44:19;;;;;;;17.83;10.00;;;;;;;;;;5013326;28;20752;-72
2021/01/10 09:47:37;;;;;;;19.87;9.80;;;;;;;;;;5014434;28;20544;-72
2021/01/10 09:50:41;;;;;;;19.83;11.00;;;;;;;;;;5013369;28;20636;-72
2021/01/10 09:53:47;;;;;;;20.03;11.17;;;;;;;;;;4985861;28;20607;-73
2021/01/10 09:56:56;;;;;;;23.30;14.70;;;;;;;;;;5013434;28;20553;-72
2021/01/10 10:00:05;;;;;;;17.87;9.77;;;;;;;;;;5005700;28;20972;-73
2021/01/10 10:03:17;;;;;;;16.57;9.97;;;;;;;;;;5003100;28;20656;-73
2021/01/10 10:06:21;;;;;;;18.10;9.27;;;;;;;;;;5014023;28;20873;-73
2021/01/10 10:09:45;;;;;;;21.10;10.20;;;;;;;;;;5006893;28;20601;-73
2021/01/10 10:12:54;;;;;;;17.33;10.77;;;;;;;;;;4973864;28;20558;-73
2021/01/10 10:15:58;;;;;;;18.03;10.53;;;;;;;;;;4973638;28;20609;-73
2021/01/10 10:19:03;;;;;;;22.33;11.27;;;;;;;;;;4973772;28;20922;-73
2021/01/10 10:22:23;;;;;;;17.50;9.60;;;;;;;;;;4962832;28;20658;-73
2021/01/10 10:25:27;;;;;;;17.33;10.20;;;;;;;;;;4992223;28;20582;-73
2021/01/10 10:28:32;;;;;;;27.10;16.07;;;;;;;;;;5011447;28;21175;-72
2021/01/10 10:31:36;;;;;;;20.07;12.43;;;;;;;;;;5012757;28;20706;-72
2021/01/10 10:34:41;;;;;;;20.20;10.53;;;;;;;;;;5012738;28;20593;-71
2021/01/10 10:37:47;;;;;;;20.03;11.37;;;;;;;;;;5013616;28;20554;-72
2021/01/10 10:40:51;;;;;;;23.87;14.00;;;;;;;;;;4981073;28;20653;-72
2021/01/10 10:43:55;;;;;;;109.33;95.23;;;;;;;;;;5013157;28;20600;-72
2021/01/10 10:46:59;;;;;;;39.43;35.23;;;;;;;;;;5012382;28;20568;-73
2021/01/10 10:50:08;;;;;;;22.73;13.10;;;;;;;;;;5013192;28;20560;-71
2021/01/10 10:53:12;;;;;;;24.53;12.67;;;;;;;;;;5001873;28;21146;-72
2021/01/10 10:56:17;;;;;;;62.30;25.93;;;;;;;;;;5016147;28;20627;-72
2021/01/10 10:59:21;;;;;;;21.97;12.27;;;;;;;;;;5017409;28;20877;-72
2021/01/10 11:02:25;;;;;;;22.83;13.47;;;;;;;;;;5016388;28;20636;-72
2021/01/10 11:05:30;;;;;;;29.07;15.53;;;;;;;;;;5003913;28;20629;-73
2021/01/10 11:08:34;;;;;;;40.43;25.87;;;;;;;;;;5007475;28;20586;-71
2021/01/10 11:11:41;;;;;;;28.03;18.77;;;;;;;;;;5004543;28;20640;-72
2021/01/10 11:14:45;;;;;;;22.70;13.77;;;;;;;;;;5017210;28;20548;-72
2021/01/10 11:17:51;;;;;;;22.63;13.43;;;;;;;;;;5017074;28;20584;-74
2021/01/10 11:20:55;;;;;;;174.20;92.33;;;;;;;;;;5016620;28;20620;-72
2021/01/10 11:24:01;;;;;;;68.60;41.47;;;;;;;;;;5016600;28;20604;-72
2021/01/10 11:27:05;;;;;;;27.20;16.97;;;;;;;;;;5016656;28;20592;-72
2021/01/10 11:30:10;;;;;;;27.03;16.30;;;;;;;;;;5016034;28;20540;-72
2021/01/10 11:33:14;;;;;;;21.17;13.03;;;;;;;;;;4976368;28;21187;-72
2021/01/10 11:36:19;;;;;;;19.87;13.13;;;;;;;;;;5015140;23;20684;-74
2021/01/10 11:39:25;;;;;;;23.50;14.17;;;;;;;;;;5000843;28;20584;-74
2021/01/10 11:42:29;;;;;;;19.80;12.87;;;;;;;;;;4996922;28;20621;-74
2021/01/10 11:45:33;;;;;;;18.80;12.67;;;;;;;;;;4996963;28;21143;-73
2021/01/10 11:48:41;;;;;;;25.10;15.03;;;;;;;;;;4977103;28;20621;-73
2021/01/10 11:51:45;;;;;;;33.63;21.00;;;;;;;;;;4993751;28;20647;-73
2021/01/10 11:54:49;;;;;;;29.27;16.93;;;;;;;;;;5016254;28;20553;-74
2021/01/10 11:57:53;;;;;;;27.90;16.30;;;;;;;;;;4997006;28;20585;-73
2021/01/10 12:00:58;;;;;;;23.83;15.40;;;;;;;;;;4986726;28;20644;-74
2021/01/10 12:04:04;;;;;;;24.03;14.60;;;;;;;;;;4995671;28;20653;-73
2021/01/10 12:07:08;;;;;;;21.47;13.50;;;;;;;;;;5007070;28;20588;-73
2021/01/10 12:10:12;;;;;;;25.37;14.10;;;;;;;;;;5015752;28;20556;-73
2021/01/10 12:13:17;;;;;;;20.40;13.43;;;;;;;;;;4976966;28;20542;-74
2021/01/10 12:16:22;;;;;;;21.10;13.00;;;;;;;;;;4987364;28;20589;-73
2021/01/10 12:19:28;;;;;;;31.40;14.20;;;;;;;;;;4996248;28;21076;-73
2021/01/10 12:22:32;;;;;;;25.47;15.13;;;;;;;;;;4995862;28;20625;-73
2021/01/10 12:25:36;;;;;;;21.97;14.87;;;;;;;;;;4998424;28;20651;-74
2021/01/10 12:28:41;;;;;;;35.47;19.13;;;;;;;;;;5015931;28;20541;-74
2021/01/10 12:31:45;;;;;;;21.53;14.93;;;;;;;;;;5015579;28;20647;-73
2021/01/10 12:34:50;;;;;;;23.77;14.20;;;;;;;;;;5013615;28;20600;-74
2021/01/10 12:37:54;;;;;;;27.80;16.47;;;;;;;;;;5003235;28;20545;-74
2021/01/10 12:40:58;;;;;;;23.47;14.90;;;;;;;;;;5014409;28;20624;-74
2021/01/10 12:44:02;;;;;;;26.53;15.47;;;;;;;;;;5014567;28;20597;-74
2021/01/10 12:47:10;;;;;;;23.10;14.43;;;;;;;;;;4996079;28;20589;-74
2021/01/10 12:50:15;;;;;;;24.63;14.63;;;;;;;;;;4994574;28;20589;-74
2021/01/10 12:53:19;;;;;;;26.13;15.80;;;;;;;;;;4995705;28;20538;-74
2021/01/10 12:56:23;;;;;;;51.47;31.83;;;;;;;;;;5007981;28;20589;-74
2021/01/10 12:59:27;;;;;;;74.17;44.20;;;;;;;;;;5015102;28;20537;-74
2021/01/10 13:02:31;;;;;;;38.63;24.10;;;;;;;;;;5014695;28;20631;-73
2021/01/10 13:05:36;;;;;;;26.77;16.00;;;;;;;;;;5008445;28;20670;-73
2021/01/10 13:08:40;;;;;;;21.93;13.70;;;;;;;;;;4995478;28;20581;-72
2021/01/10 13:11:44;;;;;;;19.20;13.17;;;;;;;;;;4994846;28;20621;-73
2021/01/10 13:14:48;;;;;;;23.47;15.70;;;;;;;;;;4995170;28;20538;-72
2021/01/10 13:17:53;;;;;;;25.03;15.57;;;;;;;;;;4993477;28;20593;-72
2021/01/10 13:20:57;;;;;;;23.37;14.90;;;;;;;;;;4994963;28;20731;-73
2021/01/10 13:24:04;;;;;;;22.37;14.27;;;;;;;;;;4994719;28;20538;-73
2021/01/10 13:27:08;;;;;;;23.93;14.40;;;;;;;;;;4995037;28;20538;-72
2021/01/10 13:30:13;;;;;;;24.93;14.77;;;;;;;;;;4994937;28;20550;-73
2021/01/10 13:33:17;;;;;;;23.60;14.33;;;;;;;;;;4994680;28;20601;-73
2021/01/10 13:36:22;;;;;;;21.50;14.23;;;;;;;;;;4993778;28;20605;-73
2021/01/10 13:39:27;;;;;;;22.60;14.23;;;;;;;;;;4994682;28;20554;-73
2021/01/10 13:42:31;;;;;;;22.03;14.20;;;;;;;;;;4994432;28;20625;-73
2021/01/10 13:45:36;;;;;;;23.80;13.93;;;;;;;;;;4993751;28;20613;-73
2021/01/10 13:48:41;;;;;;;21.13;14.20;;;;;;;;;;4993855;28;20541;-73
2021/01/10 13:51:45;;;;;;;24.67;14.37;;;;;;;;;;4993635;28;20664;-73
2021/01/10 13:54:49;;;;;;;24.37;15.30;;;;;;;;;;4994268;28;20597;-73
2021/01/10 13:57:54;;;;;;;22.10;14.37;;;;;;;;;;4994515;28;20538;-73
2021/01/10 14:00:59;;;;;;;23.53;14.90;;;;;;;;;;4994225;28;20621;-73
2021/01/10 14:04:06;;;;;;;23.20;14.53;;;;;;;;;;4994423;28;20874;-73
2021/01/10 14:07:10;;;;;;;22.03;14.87;;;;;;;;;;4993534;28;20535;-73
2021/01/10 14:10:14;;;;;;;25.33;14.57;;;;;;;;;;4994018;28;20558;-73
2021/01/10 14:13:18;;;;;;;25.17;16.17;;;;;;;;;;4994252;28;20549;-73
2021/01/10 14:16:23;;;;;;;27.73;17.27;;;;;;;;;;4994037;28;20554;-73
2021/01/10 14:19:27;;;;;;;27.17;15.77;;;;;;;;;;4994147;28;20882;-73
2021/01/10 14:22:32;;;;;;;26.53;16.87;;;;;;;;;;4992975;28;20621;-73
2021/01/10 14:25:36;;;;;;;25.23;15.47;;;;;;;;;;4994019;28;20937;-73
2021/01/10 14:28:40;;;;;;;20.47;13.17;;;;;;;;;;4992943;28;20549;-73
2021/01/10 14:31:52;;;;;;;25.00;15.37;;;;;;;;;;4993698;28;20634;-73
2021/01/10 14:34:56;;;;;;;25.90;15.70;;;;;;;;;;4993468;28;20628;-73
2021/01/10 14:38:01;;;;;;;25.77;15.27;;;;;;;;;;4994238;28;20554;-73
2021/01/10 14:41:06;;;;;;;31.30;17.20;;;;;;;;;;4992507;28;21211;-72
2021/01/10 14:44:11;;;;;;;25.43;15.07;;;;;;;;;;4993481;28;20592;-72
2021/01/10 14:47:15;;;;;;;28.87;16.73;;;;;;;;;;4993519;28;20878;-72
2021/01/10 14:50:19;;;;;;;31.40;17.70;;;;;;;;;;5008803;28;20620;-72
2021/01/10 14:53:23;;;;;;;26.30;15.70;;;;;;;;;;5008700;28;20605;-72
2021/01/10 14:56:28;;;;;;;24.20;14.47;;;;;;;;;;4993445;28;20560;-72
2021/01/10 14:59:32;;;;;;;29.20;16.23;;;;;;;;;;4995632;28;20596;-72
2021/01/10 15:02:36;;;;;;;25.40;14.00;;;;;;;;;;4993276;28;20628;-72
2021/01/10 15:05:40;;;;;;;25.57;15.27;;;;;;;;;;4993619;28;20644;-72
2021/01/10 15:08:45;;;;;;;22.87;14.90;;;;;;;;;;4979748;28;20639;-72
2021/01/10 15:11:51;;;;;;;24.50;15.23;;;;;;;;;;5001427;28;20654;-72
2021/01/10 15:14:56;;;;;;;25.40;15.27;;;;;;;;;;4993493;28;20570;-72
2021/01/10 15:18:00;;;;;;;24.90;14.87;;;;;;;;;;5003640;28;20603;-72
2021/01/10 15:21:05;;;;;;;25.90;15.07;;;;;;;;;;5012964;28;20632;-72
2021/01/10 15:24:09;;;;;;;27.90;16.37;;;;;;;;;;5012958;28;20566;-72
2021/01/10 15:27:13;;;;;;;31.43;16.80;;;;;;;;;;5008479;28;20589;-72
2021/01/10 15:30:18;;;;;;;29.43;15.67;;;;;;;;;;4993616;28;21098;-72
2021/01/10 15:33:22;;;;;;;29.60;16.63;;;;;;;;;;5007245;28;20623;-72
2021/01/10 15:36:27;;;;;;;27.17;16.73;;;;;;;;;;5011492;28;20616;-72
2021/01/10 15:39:31;;;;;;;26.77;17.13;;;;;;;;;;5012790;28;20565;-72
2021/01/10 15:42:35;;;;;;;28.20;16.77;;;;;;;;;;5010079;28;20646;-72
2021/01/10 15:45:40;;;;;;;29.67;17.40;;;;;;;;;;5009283;28;21004;-72
2021/01/10 15:48:45;;;;;;;30.97;18.10;;;;;;;;;;4996812;28;21095;-71
2021/01/10 15:51:50;;;;;;;27.87;17.40;;;;;;;;;;4996938;28;20649;-72
2021/01/10 15:54:54;;;;;;;25.40;16.80;;;;;;;;;;4996476;28;20724;-72
2021/01/10 15:57:58;;;;;;;29.13;16.43;;;;;;;;;;4997508;28;21186;-72
2021/01/10 16:01:02;;;;;;;25.03;15.60;;;;;;;;;;5008544;28;20659;-72
2021/01/10 16:04:07;;;;;;;25.50;14.87;;;;;;;;;;5016480;28;21089;-72
2021/01/10 16:07:12;;;;;;;25.73;15.20;;;;;;;;;;5008673;28;20636;-72
2021/01/10 16:10:16;;;;;;;24.17;14.43;;;;;;;;;;5001297;28;20596;-72
2021/01/10 16:13:20;;;;;;;24.60;14.97;;;;;;;;;;5014625;28;20957;-72
2021/01/10 16:16:26;;;;;;;24.00;14.80;;;;;;;;;;5015793;28;21109;-71
2021/01/10 16:19:31;;;;;;;22.93;14.80;;;;;;;;;;5007602;28;20604;-72
2021/01/10 16:22:35;;;;;;;20.93;13.30;;;;;;;;;;5007851;28;20648;-71
2021/01/10 16:25:39;;;;;;;22.80;14.20;;;;;;;;;;4995719;28;21008;-72
2021/01/10 16:28:43;;;;;;;21.80;13.30;;;;;;;;;;4996597;28;21075;-71
2021/01/10 16:31:47;;;;;;;24.80;14.87;;;;;;;;;;5012448;28;20662;-71
2021/01/10 16:34:52;;;;;;;27.50;15.37;;;;;;;;;;5003119;28;20627;-74
2021/01/10 16:38:04;;;;;;;26.97;14.50;;;;;;;;;;5004302;28;20599;-71
2021/01/10 16:41:08;;;;;;;22.07;14.40;;;;;;;;;;4987147;28;20653;-71
2021/01/10 16:44:15;;;;;;;25.63;14.30;;;;;;;;;;4988955;28;20588;-72
2021/01/10 16:47:23;;;;;;;25.03;14.90;;;;;;;;;;4995606;28;20651;-71
2021/01/10 16:50:28;;;;;;;26.93;15.33;;;;;;;;;;4995713;28;20549;-72
2021/01/10 16:53:32;;;;;;;27.87;15.50;;;;;;;;;;4995058;28;21132;-71
2021/01/10 16:56:36;;;;;;;26.53;15.80;;;;;;;;;;4995329;28;20601;-71
2021/01/10 16:59:40;;;;;;;24.53;14.83;;;;;;;;;;4995217;28;20624;-71
2021/01/10 17:02:45;;;;;;;26.40;16.27;;;;;;;;;;4994663;28;21249;-72
2021/01/10 17:05:49;;;;;;;29.20;15.87;;;;;;;;;;4995576;28;20992;-74
2021/01/10 17:08:53;;;;;;;26.37;15.77;;;;;;;;;;4995113;28;20622;-74
2021/01/10 17:11:58;;;;;;;22.70;13.70;;;;;;;;;;4986778;28;20642;-73
2021/01/10 17:15:02;;;;;;;23.90;13.57;;;;;;;;;;4995244;28;20194;-73
2021/01/10 17:18:06;;;;;;;22.40;14.13;;;;;;;;;;4994389;28;20539;-73
2021/01/10 17:21:10;;;;;;;24.10;13.73;;;;;;;;;;4993536;28;20667;-73
2021/01/10 17:24:14;;;;;;;22.83;13.50;;;;;;;;;;4983005;28;20561;-72
2021/01/10 17:27:19;;;;;;;25.20;14.77;;;;;;;;;;4975576;28;20599;-72
2021/01/10 17:30:23;;;;;;;24.35;14.75;;;;;;;;;;4981730;28;20600;-72
2021/01/10 17:33:31;;;;;;;25.23;15.30;;;;;;;;;;4994717;28;20194;-72
2021/01/10 17:36:35;;;;;;;24.07;13.93;;;;;;;;;;4993414;28;20639;-72
2021/01/10 17:39:39;;;;;;;30.10;16.03;;;;;;;;;;4996626;28;20581;-72
2021/01/10 17:42:44;;;;;;;24.60;15.37;;;;;;;;;;4994192;28;20627;-72
2021/01/10 17:45:48;;;;;;;24.20;14.37;;;;;;;;;;4993928;28;21028;-71
2021/01/10 17:48:53;;;;;;;22.63;13.43;;;;;;;;;;4994056;28;20605;-75
2021/01/10 17:51:57;;;;;;;21.50;13.50;;;;;;;;;;4994175;28;20651;-71
2021/01/10 17:55:02;;;;;;;25.60;14.17;;;;;;;;;;4994298;28;20569;-71
2021/01/10 17:58:07;;;;;;;25.27;13.67;;;;;;;;;;4993950;28;20626;-71
2021/01/10 18:01:11;;;;;;;22.77;14.10;;;;;;;;;;4993640;28;20652;-73
2021/01/10 18:04:15;;;;;;;22.65;13.90;;;;;;;;;;4993406;28;20186;-73
2021/01/10 18:07:19;;;;;;;27.00;16.25;;;;;;;;;;4994065;28;20221;-73